Carpathia — WBC2454 — position and weather

sailwx.info

Track history (hours):
 
Tides and Currents Weather Stations Pressure Air Temp Water Temp Dewpoint Dewpoint Depression Visibility Wind Speed Wind Dir Waves Ship Positions

Carpathia

Owner: BRUSTOWICZ, THEODORE R, COVINGTON, LA. More information available from US FCC via Universal Licensing System and Coast Guard Vessel Documentation Center.

Last reported at 2015-Feb-12 07:26 UTC. Time now 2015-Apr-22 01:44 UTC.
Position N 30°14' W 091°34'.
Warning: this ship's position is months out of date.

Length 23 m; draft 4 m.

Type: Towing. MMSI: 366993420.

Date/timePositionNaut miles runAvg speedWind from/ knotsBaromVisibWave heightAir tempDewpointWater temp
2015-Feb-12 07:26N 30°14' W 091°34'4 4.3
2015-Feb-12 06:33N 30°11' W 091°32'4 4.2
2015-Feb-12 05:28N 30°07' W 091°29'4 3.8
2015-Feb-12 04:31N 30°03' W 091°29'4 4.2
2015-Feb-12 03:33N 29°59' W 091°28'4 4.2
2015-Feb-12 02:33N 29°55' W 091°28'4 4.2
2015-Feb-12 01:33N 29°52' W 091°25'4 4.0
2015-Feb-12 00:33N 29°48' W 091°22'4 4.3
2015-Feb-11 23:33N 29°46' W 091°19'4 4.2
2015-Feb-11 22:33N 29°45' W 091°14'4 4.3
2015-Feb-11 21:33N 29°41' W 091°13'1 1.4
2015-Feb-11 20:33N 29°40' W 091°14'0 0.0
2015-Feb-11 19:34N 29°40' W 091°14'0 0.0
2015-Feb-11 18:33N 29°40' W 091°14'5 5.3
2015-Feb-11 17:32N 29°38' W 091°20'13 5.9
2015-Feb-11 15:21N 29°44' W 091°34'  
2015-Feb-05 21:26N 29°46' W 091°37'5 5.5
2015-Feb-05 20:33N 29°43' W 091°33'6 6.1
2015-Feb-05 19:31N 29°40' W 091°26'6 6.1
2015-Feb-05 18:33N 29°38' W 091°20'6 6.1
2015-Feb-05 17:33N 29°41' W 091°13'4 3.6
2015-Feb-05 16:33N 29°44' W 091°14'0 0.0
2015-Feb-05 15:33N 29°44' W 091°14'5 5.1
2015-Feb-05 14:33N 29°46' W 091°19'7 7.3
2015-Feb-05 13:33N 29°51' W 091°25'7 7.1
2015-Feb-05 12:33N 29°58' W 091°28'7 6.8
2015-Feb-05 11:29N 30°05' W 091°28'3 0.1
2015-Feb-04 03:12N 30°08' W 091°30'14 3.7
2015-Feb-03 23:29N 29°54' W 091°27'4 4.3
2015-Feb-03 22:33N 29°51' W 091°25'4 4.3
2015-Feb-03 21:33N 29°48' W 091°22'4 4.0
2015-Feb-03 20:33N 29°46' W 091°18'4 3.7
2015-Feb-03 19:33N 29°45' W 091°14'4 4.1
2015-Feb-03 18:33N 29°41' W 091°13'4 4.3
2015-Feb-03 17:33N 29°39' W 091°18'4 4.1
2015-Feb-03 16:33N 29°39' W 091°23'4 3.8
2015-Feb-03 15:27N 29°40' W 091°27'4 4.0
2015-Feb-03 14:33N 29°42' W 091°31'4 4.1
2015-Feb-03 13:30N 29°45' W 091°35'  
Track history (hours):
 
Tides and Currents Weather Stations Pressure Air Temp Water Temp Dewpoint Dewpoint Depression Visibility Wind Speed Wind Dir Waves Ship Positions

Carpathia

Owner: BRUSTOWICZ, THEODORE R, COVINGTON, LA. More information available from US FCC via Universal Licensing System and Coast Guard Vessel Documentation Center.

Last reported at 2015-Feb-12 07:26 UTC. Time now 2015-Apr-22 01:44 UTC.
Position N 30°14' W 091°34'.
Warning: this ship's position is months out of date.

Length 23 m; draft 4 m.

Type: Towing. MMSI: 366993420.

Date/timePositionNaut miles runAvg speedWind from/ knotsBaromVisibWave heightAir tempDewpointWater temp
2015-Feb-12 07:26N 30°14' W 091°34'4 4.3
2015-Feb-12 06:33N 30°11' W 091°32'4 4.2
2015-Feb-12 05:28N 30°07' W 091°29'4 3.8
2015-Feb-12 04:31N 30°03' W 091°29'4 4.2
2015-Feb-12 03:33N 29°59' W 091°28'4 4.2
2015-Feb-12 02:33N 29°55' W 091°28'4 4.2
2015-Feb-12 01:33N 29°52' W 091°25'4 4.0
2015-Feb-12 00:33N 29°48' W 091°22'4 4.3
2015-Feb-11 23:33N 29°46' W 091°19'4 4.2
2015-Feb-11 22:33N 29°45' W 091°14'4 4.3
2015-Feb-11 21:33N 29°41' W 091°13'1 1.4
2015-Feb-11 20:33N 29°40' W 091°14'0 0.0
2015-Feb-11 19:34N 29°40' W 091°14'0 0.0
2015-Feb-11 18:33N 29°40' W 091°14'5 5.3
2015-Feb-11 17:32N 29°38' W 091°20'13 5.9
2015-Feb-11 15:21N 29°44' W 091°34'  
2015-Feb-05 21:26N 29°46' W 091°37'5 5.5
2015-Feb-05 20:33N 29°43' W 091°33'6 6.1
2015-Feb-05 19:31N 29°40' W 091°26'6 6.1
2015-Feb-05 18:33N 29°38' W 091°20'6 6.1
2015-Feb-05 17:33N 29°41' W 091°13'4 3.6
2015-Feb-05 16:33N 29°44' W 091°14'0 0.0
2015-Feb-05 15:33N 29°44' W 091°14'5 5.1
2015-Feb-05 14:33N 29°46' W 091°19'7 7.3
2015-Feb-05 13:33N 29°51' W 091°25'7 7.1
2015-Feb-05 12:33N 29°58' W 091°28'7 6.8
2015-Feb-05 11:29N 30°05' W 091°28'3 0.1
2015-Feb-04 03:12N 30°08' W 091°30'14 3.7
2015-Feb-03 23:29N 29°54' W 091°27'4 4.3
2015-Feb-03 22:33N 29°51' W 091°25'4 4.3
2015-Feb-03 21:33N 29°48' W 091°22'4 4.0
2015-Feb-03 20:33N 29°46' W 091°18'4 3.7
2015-Feb-03 19:33N 29°45' W 091°14'4 4.1
2015-Feb-03 18:33N 29°41' W 091°13'4 4.3
2015-Feb-03 17:33N 29°39' W 091°18'4 4.1
2015-Feb-03 16:33N 29°39' W 091°23'4 3.8
2015-Feb-03 15:27N 29°40' W 091°27'4 4.0
2015-Feb-03 14:33N 29°42' W 091°31'4 4.1
2015-Feb-03 13:30N 29°45' W 091°35'  

Dump ship's entire track history